Tropical Cyclones
[Index]
Main Index Home Page Stock Weather Photos Extreme Storms Discussion Storm News and Storm Chasing Reports Tropical Cyclones / Hurricanes / Typhoons Weather Data and Links Wild Fires / Bushfires Weather Observation Techniques Weather Picture Catalogue Tornado Pictures and Reports Stock Video Footage and DVDs for sale
Season 2016-2017 Tropical Cyclone GREG Track Map
Season 2016-2017 Summaries (Operational Data): [AU] [SIO] [SPAC] [SH]
<<- Previous TC | 2016-2017 Season | Next TC ->>

click for intensity scale information  Lat/long Grid: Show Hide

 Date Labels: Show Hide

Operational Tropical Cyclone Data

Name: GREG
Number: 17S1

29 Apr 2017 00:00 UTC to 04 May 2017 00:00 UTC

    date/time    lat    long     hPa   cat  kts
2017-04-29 00    9.2   102.9    1000         30          
2017-04-29 06    9.4   102.5    1010         15          
2017-04-29 12    9.6   102.1    1010         15          
2017-04-29 18    9.9   101.9    1008         15          
2017-04-30 00   10.3   101.7    1004         30          
2017-04-30 06   10.4   101.4    1007         25          
2017-04-30 12   10.8   100.5    1007         20          
2017-04-30 18   10.8    99.2    1000         30          
2017-05-01 00   10.4    98.1    1004         25          
2017-05-01 06   10.3    97.3    1004         25          
2017-05-01 12   10.6    96.8    1006         25          
2017-05-01 18   10.5    95.8    1004         25          
2017-05-02 00   10.3    94.6    1007         25          
2017-05-02 06   10.1    93.3    1004         25          
2017-05-02 12    9.9    92.3    1004         25          
2017-05-02 18   10.0    91.5    1007         20          
2017-05-03 00    9.8    90.1    1007         20          
2017-05-03 06    9.6    89.1    1007         20          
2017-05-03 12    9.4    86.9    1007         20          
2017-05-03 18    9.3    85.3    1007         20          
2017-05-04 00    9.3    83.3    1007         20          
Winds are 10-min average.

Tropical cyclone tracks developed by Michael Bath using operational warnings and advisories and Google Maps.


[Australian Severe Weather index] [Copyright Notice] [Email Contacts] [Search This Site] [Privacy Policy]
Document: tropical_cyclone_greg.htm Updated: 4 July 2017